Time;durP1;ratioP1;P1;durP2;ratioP2;P2;SDS_P1;SDS_P2;PMS_P1;PMS_P2;Temp;Humidity;BMP_temperature;BMP_pressure;BME280_temperature;BME280_humidity;BME280_pressure;Samples;Min_cycle;Max_cycle;Signal;HPM_P1;HPM_P2
2023/01/25 00:00:17;;;;;;;0.20;0.20;;;;;;;;;;5093236;28;20527;-68
2023/01/25 00:02:44;;;;;;;0.20;0.20;;;;;;;;;;5102554;28;20235;-68
2023/01/25 00:05:10;;;;;;;0.20;0.20;;;;;;;;;;5092721;28;20271;-69
2023/01/25 00:07:36;;;;;;;0.20;0.20;;;;;;;;;;5102488;28;20213;-68
2023/01/25 00:10:03;;;;;;;0.20;0.20;;;;;;;;;;5103612;28;20239;-68
2023/01/25 00:12:29;;;;;;;0.40;0.40;;;;;;;;;;5092010;28;20249;-68
2023/01/25 00:14:57;;;;;;;0.20;0.20;;;;;;;;;;5103360;28;20225;-68
2023/01/25 00:17:23;;;;;;;0.20;0.20;;;;;;;;;;5092014;28;20303;-68
2023/01/25 00:19:50;;;;;;;0.30;0.30;;;;;;;;;;5103567;28;20204;-68
2023/01/25 00:22:16;;;;;;;0.20;0.20;;;;;;;;;;5091535;28;20241;-68
2023/01/25 00:24:42;;;;;;;0.20;0.20;;;;;;;;;;5103495;28;20205;-68
2023/01/25 00:27:09;;;;;;;0.20;0.20;;;;;;;;;;5091895;28;20263;-68
2023/01/25 00:29:35;;;;;;;0.20;0.20;;;;;;;;;;5103377;28;20428;-68
2023/01/25 00:32:25;;;;;;;0.30;0.30;;;;;;;;;;5091854;28;20248;-68
2023/01/25 00:34:52;;;;;;;0.20;0.20;;;;;;;;;;5103467;28;20228;-68
2023/01/25 00:37:20;;;;;;;0.20;0.20;;;;;;;;;;5091829;28;20241;-68
2023/01/25 00:39:47;;;;;;;0.20;0.20;;;;;;;;;;5103070;28;20211;-68
2023/01/25 00:42:13;;;;;;;0.20;0.20;;;;;;;;;;5091680;28;20473;-68
2023/01/25 00:44:40;;;;;;;0.20;0.20;;;;;;;;;;5103312;28;20447;-68
2023/01/25 00:47:06;;;;;;;0.20;0.20;;;;;;;;;;5093866;28;20260;-68
2023/01/25 00:49:34;;;;;;;0.30;0.30;;;;;;;;;;5106846;28;20211;-68
2023/01/25 00:52:00;;;;;;;0.23;0.23;;;;;;;;;;5095203;28;20266;-68
2023/01/25 00:54:27;;;;;;;0.20;0.20;;;;;;;;;;5106670;28;20204;-69
2023/01/25 00:56:55;;;;;;;0.20;0.20;;;;;;;;;;5095254;28;20242;-68
2023/01/25 00:59:21;;;;;;;0.20;0.20;;;;;;;;;;5106603;28;20237;-70
2023/01/25 01:01:48;;;;;;;0.20;0.20;;;;;;;;;;5095018;28;20241;-69
2023/01/25 01:04:14;;;;;;;0.50;0.50;;;;;;;;;;5106454;28;20232;-68
2023/01/25 01:06:42;;;;;;;0.20;0.20;;;;;;;;;;5095040;28;20266;-68
2023/01/25 01:09:11;;;;;;;0.20;0.20;;;;;;;;;;5106009;28;20236;-68
2023/01/25 01:11:38;;;;;;;0.30;0.30;;;;;;;;;;5094925;28;20238;-68
2023/01/25 01:14:04;;;;;;;0.80;0.80;;;;;;;;;;5105903;28;20276;-68
2023/01/25 01:16:31;;;;;;;0.23;0.23;;;;;;;;;;5095058;28;20432;-68
2023/01/25 01:18:57;;;;;;;0.20;0.20;;;;;;;;;;5105702;28;20236;-69
2023/01/25 01:21:24;;;;;;;0.27;0.27;;;;;;;;;;5094561;28;20236;-68
2023/01/25 01:23:53;;;;;;;0.23;0.23;;;;;;;;;;5105576;28;20271;-69
2023/01/25 01:26:19;;;;;;;0.20;0.20;;;;;;;;;;5094907;28;20302;-68
2023/01/25 01:28:46;;;;;;;0.20;0.20;;;;;;;;;;5105404;28;20261;-68
2023/01/25 01:31:13;;;;;;;0.97;0.97;;;;;;;;;;5094689;28;20297;-69
2023/01/25 01:33:40;;;;;;;0.20;0.20;;;;;;;;;;5105532;28;20291;-68
2023/01/25 01:36:07;;;;;;;0.20;0.20;;;;;;;;;;5094644;28;20484;-69
2023/01/25 01:38:33;;;;;;;0.20;0.20;;;;;;;;;;5105344;28;20446;-69
2023/01/25 01:41:01;;;;;;;0.20;0.20;;;;;;;;;;5094666;28;20503;-69
2023/01/25 01:43:29;;;;;;;1.13;1.13;;;;;;;;;;5105247;28;20232;-69
2023/01/25 01:45:57;;;;;;;0.20;0.20;;;;;;;;;;5094789;28;20245;-68
2023/01/25 01:48:27;;;;;;;0.20;0.20;;;;;;;;;;5105143;28;20455;-69
2023/01/25 01:50:56;;;;;;;0.20;0.20;;;;;;;;;;5094735;28;20259;-69
2023/01/25 01:53:23;;;;;;;0.23;0.23;;;;;;;;;;5104961;28;20268;-68
2023/01/25 01:55:50;;;;;;;0.70;0.70;;;;;;;;;;5094676;28;20596;-69
2023/01/25 01:58:18;;;;;;;0.20;0.20;;;;;;;;;;5104670;28;20236;-69
2023/01/25 02:00:44;;;;;;;0.33;0.33;;;;;;;;;;5094512;28;20275;-68
2023/01/25 02:03:11;;;;;;;0.20;0.20;;;;;;;;;;5104735;28;20256;-69
2023/01/25 02:05:42;;;;;;;0.30;0.30;;;;;;;;;;5094328;28;20255;-69
2023/01/25 02:08:10;;;;;;;2.23;2.23;;;;;;;;;;5104517;28;20503;-68
2023/01/25 02:10:38;;;;;;;0.40;0.40;;;;;;;;;;5094287;28;20303;-69
2023/01/25 02:13:04;;;;;;;0.20;0.20;;;;;;;;;;5104189;28;20200;-68
2023/01/25 02:15:36;;;;;;;0.20;0.20;;;;;;;;;;5094475;28;20370;-69
2023/01/25 02:18:03;;;;;;;0.60;0.60;;;;;;;;;;5104060;28;20192;-68
2023/01/25 02:20:36;;;;;;;0.20;0.20;;;;;;;;;;5094419;28;20262;-69
2023/01/25 02:23:06;;;;;;;0.20;0.20;;;;;;;;;;5103784;28;20229;-68
2023/01/25 02:25:34;;;;;;;0.20;0.20;;;;;;;;;;5093940;28;20356;-69
2023/01/25 02:28:05;;;;;;;0.20;0.20;;;;;;;;;;5103917;28;20292;-69
2023/01/25 02:30:31;;;;;;;1.60;1.50;;;;;;;;;;5093909;28;20266;-69
2023/01/25 02:32:58;;;;;;;1.70;1.60;;;;;;;;;;5103798;28;20267;-68
2023/01/25 02:35:25;;;;;;;0.20;0.20;;;;;;;;;;5093964;28;20211;-68
2023/01/25 02:37:52;;;;;;;0.20;0.20;;;;;;;;;;5103803;28;20240;-69
2023/01/25 02:40:18;;;;;;;0.20;0.20;;;;;;;;;;5093909;28;20280;-69
2023/01/25 02:42:46;;;;;;;0.20;0.20;;;;;;;;;;5103633;28;20251;-69
2023/01/25 02:45:14;;;;;;;0.30;0.30;;;;;;;;;;5094089;28;20205;-69
2023/01/25 02:47:40;;;;;;;0.20;0.20;;;;;;;;;;5103568;28;20242;-69
2023/01/25 02:50:07;;;;;;;0.20;0.20;;;;;;;;;;5101409;28;20244;-69
2023/01/25 02:52:34;;;;;;;0.20;0.20;;;;;;;;;;5102986;28;20284;-68
2023/01/25 02:55:00;;;;;;;0.20;0.20;;;;;;;;;;5104527;28;20228;-68
2023/01/25 02:57:26;;;;;;;0.20;0.20;;;;;;;;;;5092833;28;20307;-69
2023/01/25 02:59:54;;;;;;;0.20;0.20;;;;;;;;;;5104080;28;20239;-68
2023/01/25 03:02:21;;;;;;;0.20;0.20;;;;;;;;;;5092783;28;20283;-69
2023/01/25 03:04:47;;;;;;;0.20;0.20;;;;;;;;;;5104068;28;20205;-69
2023/01/25 03:07:14;;;;;;;0.23;0.23;;;;;;;;;;5092736;28;20239;-69
2023/01/25 03:09:40;;;;;;;0.40;0.40;;;;;;;;;;5103763;28;20274;-68
2023/01/25 03:12:07;;;;;;;0.20;0.20;;;;;;;;;;5092670;28;20248;-68
2023/01/25 03:14:33;;;;;;;2.47;2.27;;;;;;;;;;5104166;28;20235;-68
2023/01/25 03:17:01;;;;;;;0.20;0.20;;;;;;;;;;5092397;28;20314;-69
2023/01/25 03:19:28;;;;;;;0.20;0.20;;;;;;;;;;5104028;28;20211;-69
2023/01/25 03:21:54;;;;;;;0.20;0.20;;;;;;;;;;5092240;28;20236;-68
2023/01/25 03:24:20;;;;;;;0.30;0.30;;;;;;;;;;5103992;28;20204;-68
2023/01/25 03:29:32;;;;;;;0.20;0.20;;;;;;;;;;5103800;28;20191;-69
2023/01/25 03:31:58;;;;;;;0.20;0.20;;;;;;;;;;5092436;28;20245;-69
2023/01/25 03:34:26;;;;;;;0.20;0.20;;;;;;;;;;5103886;28;20212;-69
2023/01/25 03:36:52;;;;;;;0.20;0.20;;;;;;;;;;5092519;28;20527;-69
2023/01/25 03:39:19;;;;;;;0.20;0.20;;;;;;;;;;5103811;28;20308;-68
2023/01/25 03:41:45;;;;;;;0.20;0.20;;;;;;;;;;5092159;28;20251;-69
2023/01/25 03:44:12;;;;;;;0.20;0.20;;;;;;;;;;5103668;28;20236;-68
2023/01/25 03:46:38;;;;;;;0.60;0.60;;;;;;;;;;5092344;28;20240;-69
2023/01/25 03:49:04;;;;;;;0.30;0.30;;;;;;;;;;5103585;28;20472;-69
2023/01/25 03:51:32;;;;;;;0.20;0.20;;;;;;;;;;5092378;28;20316;-68
2023/01/25 03:53:58;;;;;;;0.20;0.20;;;;;;;;;;5103198;28;20268;-68
2023/01/25 03:56:25;;;;;;;0.20;0.20;;;;;;;;;;5092440;28;20488;-69
2023/01/25 03:58:51;;;;;;;0.20;0.20;;;;;;;;;;5103390;28;20450;-69
2023/01/25 04:01:17;;;;;;;0.20;0.20;;;;;;;;;;5092417;28;20254;-68
2023/01/25 04:03:44;;;;;;;0.30;0.30;;;;;;;;;;5102828;28;20227;-68
2023/01/25 04:06:10;;;;;;;0.30;0.30;;;;;;;;;;5092508;28;20316;-68
2023/01/25 04:08:38;;;;;;;0.20;0.20;;;;;;;;;;5103119;28;20271;-69
2023/01/25 04:11:05;;;;;;;0.20;0.20;;;;;;;;;;5092366;28;20307;-69
2023/01/25 04:13:33;;;;;;;0.20;0.20;;;;;;;;;;5102980;28;20200;-69
2023/01/25 04:16:00;;;;;;;0.20;0.20;;;;;;;;;;5092490;28;20313;-68
2023/01/25 04:18:26;;;;;;;0.60;0.60;;;;;;;;;;5102585;28;20234;-69
2023/01/25 04:20:53;;;;;;;0.20;0.20;;;;;;;;;;5093062;28;20277;-69
2023/01/25 04:23:19;;;;;;;0.20;0.20;;;;;;;;;;5106405;28;20240;-69
2023/01/25 04:25:53;;;;;;;0.20;0.20;;;;;;;;;;5096165;28;20299;-69
2023/01/25 04:28:19;;;;;;;0.20;0.20;;;;;;;;;;5106657;28;20209;-69
2023/01/25 04:30:46;;;;;;;0.20;0.20;;;;;;;;;;5096348;28;20297;-69
2023/01/25 04:33:12;;;;;;;0.20;0.20;;;;;;;;;;5106404;28;20507;-69
2023/01/25 04:35:38;;;;;;;0.20;0.20;;;;;;;;;;5096105;28;20256;-69
2023/01/25 04:38:05;;;;;;;0.20;0.20;;;;;;;;;;5106126;28;20232;-69
2023/01/25 04:40:32;;;;;;;0.20;0.20;;;;;;;;;;5096225;28;20253;-68
2023/01/25 04:42:59;;;;;;;0.20;0.20;;;;;;;;;;5106125;28;20230;-68
2023/01/25 04:45:26;;;;;;;0.20;0.20;;;;;;;;;;5096060;28;20235;-68
2023/01/25 04:47:55;;;;;;;0.20;0.20;;;;;;;;;;5106040;28;20468;-68
2023/01/25 04:50:22;;;;;;;0.20;0.20;;;;;;;;;;5096189;28;20459;-69
2023/01/25 04:52:48;;;;;;;0.30;0.30;;;;;;;;;;5105874;28;20455;-69
2023/01/25 04:55:14;;;;;;;0.23;0.23;;;;;;;;;;5096151;28;20391;-68
2023/01/25 04:57:41;;;;;;;1.73;1.73;;;;;;;;;;5105597;28;20237;-69
2023/01/25 05:00:09;;;;;;;0.30;0.30;;;;;;;;;;5104259;28;20239;-69
2023/01/25 05:02:36;;;;;;;1.77;1.77;;;;;;;;;;5105223;28;20259;-69
2023/01/25 05:05:02;;;;;;;0.20;0.20;;;;;;;;;;5106130;28;20211;-68
2023/01/25 05:07:29;;;;;;;0.20;0.20;;;;;;;;;;5094891;28;20264;-69
2023/01/25 05:09:55;;;;;;;0.20;0.20;;;;;;;;;;5106240;28;20247;-68
2023/01/25 05:12:21;;;;;;;0.20;0.20;;;;;;;;;;5094851;28;20300;-68
2023/01/25 05:14:48;;;;;;;1.03;0.93;;;;;;;;;;5106383;28;20236;-69
2023/01/25 05:17:15;;;;;;;0.20;0.20;;;;;;;;;;5094787;28;20322;-68
2023/01/25 05:19:42;;;;;;;0.30;0.30;;;;;;;;;;5106044;28;20397;-69
2023/01/25 05:22:13;;;;;;;0.20;0.20;;;;;;;;;;5094297;28;20254;-68
2023/01/25 05:24:40;;;;;;;0.20;0.20;;;;;;;;;;5106033;28;20259;-69
2023/01/25 05:27:06;;;;;;;0.20;0.20;;;;;;;;;;5094552;28;20240;-68
2023/01/25 05:29:35;;;;;;;0.27;0.27;;;;;;;;;;5105836;28;20223;-68
2023/01/25 05:32:02;;;;;;;0.20;0.20;;;;;;;;;;5093947;28;20558;-69
2023/01/25 05:34:29;;;;;;;0.27;0.27;;;;;;;;;;5105960;28;20276;-68
2023/01/25 05:36:56;;;;;;;0.30;0.30;;;;;;;;;;5094561;28;20301;-68
2023/01/25 05:39:23;;;;;;;0.27;0.27;;;;;;;;;;5105541;28;20275;-69
2023/01/25 05:41:49;;;;;;;0.40;0.40;;;;;;;;;;5094400;28;20452;-68
2023/01/25 05:44:16;;;;;;;0.23;0.23;;;;;;;;;;5105609;28;20248;-69
2023/01/25 05:46:42;;;;;;;0.47;0.47;;;;;;;;;;5094348;28;20239;-68
2023/01/25 05:49:08;;;;;;;0.20;0.20;;;;;;;;;;5105561;28;20280;-68
2023/01/25 05:51:37;;;;;;;0.40;0.40;;;;;;;;;;5094295;28;20310;-68
2023/01/25 05:54:03;;;;;;;0.30;0.30;;;;;;;;;;5105138;28;20271;-68
2023/01/25 05:56:30;;;;;;;0.30;0.30;;;;;;;;;;5093973;28;20301;-69
2023/01/25 05:58:56;;;;;;;0.20;0.20;;;;;;;;;;5105031;28;20278;-69
2023/01/25 06:01:23;;;;;;;0.20;0.20;;;;;;;;;;5094230;28;20308;-69
2023/01/25 06:03:50;;;;;;;0.20;0.20;;;;;;;;;;5105000;28;20463;-69
2023/01/25 06:06:17;;;;;;;0.20;0.20;;;;;;;;;;5094010;28;20266;-69
2023/01/25 06:08:44;;;;;;;0.20;0.20;;;;;;;;;;5104944;28;20453;-68
2023/01/25 06:11:12;;;;;;;0.20;0.20;;;;;;;;;;5094082;28;20470;-69
2023/01/25 06:13:39;;;;;;;0.20;0.20;;;;;;;;;;5104473;28;20267;-69
2023/01/25 06:16:05;;;;;;;0.23;0.23;;;;;;;;;;5094238;28;20239;-68
2023/01/25 06:18:32;;;;;;;0.20;0.20;;;;;;;;;;5104594;28;20272;-68
2023/01/25 06:20:59;;;;;;;0.20;0.20;;;;;;;;;;5093836;28;20280;-68
2023/01/25 06:23:26;;;;;;;0.27;0.27;;;;;;;;;;5104099;28;20242;-67
2023/01/25 06:25:57;;;;;;;0.53;0.53;;;;;;;;;;5093747;28;20271;-67
2023/01/25 06:28:24;;;;;;;0.20;0.20;;;;;;;;;;5104384;28;20276;-68
2023/01/25 06:30:50;;;;;;;0.20;0.20;;;;;;;;;;5093626;28;20246;-68
2023/01/25 06:33:16;;;;;;;0.40;0.40;;;;;;;;;;5103961;28;20242;-68
2023/01/25 06:35:43;;;;;;;0.20;0.20;;;;;;;;;;5093873;28;20298;-68
2023/01/25 06:38:09;;;;;;;0.20;0.20;;;;;;;;;;5103677;28;20210;-67
2023/01/25 06:40:36;;;;;;;0.20;0.20;;;;;;;;;;5093866;28;20293;-67
2023/01/25 06:43:07;;;;;;;0.20;0.20;;;;;;;;;;5103545;28;20212;-68
2023/01/25 06:45:33;;;;;;;0.20;0.20;;;;;;;;;;5093290;28;20312;-67
2023/01/25 06:48:00;;;;;;;0.30;0.30;;;;;;;;;;5103520;28;20279;-67
2023/01/25 06:50:26;;;;;;;0.23;0.23;;;;;;;;;;5093761;28;20256;-68
2023/01/25 06:52:53;;;;;;;0.20;0.20;;;;;;;;;;5103613;28;20203;-68
2023/01/25 06:55:20;;;;;;;0.23;0.23;;;;;;;;;;5093897;28;20242;-68
2023/01/25 06:57:46;;;;;;;0.30;0.30;;;;;;;;;;5103406;28;20438;-68
2023/01/25 07:00:15;;;;;;;0.20;0.20;;;;;;;;;;5093865;28;20229;-69
2023/01/25 07:02:41;;;;;;;0.33;0.33;;;;;;;;;;5103239;28;20251;-69
2023/01/25 07:05:08;;;;;;;0.87;0.87;;;;;;;;;;5097047;28;20235;-69
2023/01/25 07:07:34;;;;;;;0.37;0.37;;;;;;;;;;5103120;28;20386;-68
2023/01/25 07:10:01;;;;;;;0.20;0.20;;;;;;;;;;5104288;28;20453;-69
2023/01/25 07:12:28;;;;;;;0.27;0.27;;;;;;;;;;5092634;28;20415;-69
2023/01/25 07:14:54;;;;;;;0.20;0.20;;;;;;;;;;5104215;28;20287;-69
2023/01/25 07:17:22;;;;;;;0.20;0.20;;;;;;;;;;5092270;28;20303;-69
2023/01/25 07:19:49;;;;;;;0.20;0.20;;;;;;;;;;5104118;28;20204;-69
2023/01/25 07:22:16;;;;;;;0.20;0.20;;;;;;;;;;5109544;28;20255;-69
2023/01/25 07:24:48;;;;;;;0.30;0.30;;;;;;;;;;5124078;28;20255;-68
2023/01/25 07:27:15;;;;;;;2.27;1.70;;;;;;;;;;5112821;28;20438;-69
2023/01/25 07:29:41;;;;;;;0.30;0.30;;;;;;;;;;5124075;28;20207;-68
2023/01/25 07:32:08;;;;;;;0.50;0.50;;;;;;;;;;5112652;28;20244;-68
2023/01/25 07:34:35;;;;;;;0.20;0.20;;;;;;;;;;5124318;28;20393;-68
2023/01/25 07:37:02;;;;;;;0.30;0.30;;;;;;;;;;5112621;28;20315;-68
2023/01/25 07:39:28;;;;;;;0.20;0.20;;;;;;;;;;5123762;28;20210;-69
2023/01/25 07:41:55;;;;;;;0.30;0.30;;;;;;;;;;5112645;28;20239;-68
2023/01/25 07:44:21;;;;;;;0.23;0.23;;;;;;;;;;5123795;28;20254;-68
2023/01/25 07:46:47;;;;;;;11.13;10.37;;;;;;;;;;5112546;28;20302;-69
2023/01/25 07:49:14;;;;;;;0.20;0.20;;;;;;;;;;5124031;28;20234;-68
2023/01/25 07:51:41;;;;;;;0.20;0.20;;;;;;;;;;5112570;28;20247;-68
2023/01/25 07:54:10;;;;;;;0.20;0.20;;;;;;;;;;5123650;28;20238;-68
2023/01/25 07:56:38;;;;;;;0.30;0.30;;;;;;;;;;5116360;28;20301;-68
2023/01/25 07:59:07;;;;;;;0.37;0.37;;;;;;;;;;5127736;28;20192;-68
2023/01/25 08:01:33;;;;;;;0.30;0.30;;;;;;;;;;5116632;28;20289;-68
2023/01/25 08:04:03;;;;;;;0.20;0.20;;;;;;;;;;5127931;28;20256;-68
2023/01/25 08:06:34;;;;;;;1.63;1.63;;;;;;;;;;5116752;28;20264;-68
2023/01/25 08:09:03;;;;;;;0.40;0.40;;;;;;;;;;5127893;28;20197;-68
2023/01/25 08:11:30;;;;;;;0.20;0.20;;;;;;;;;;5116646;28;20314;-68
2023/01/25 08:13:57;;;;;;;0.20;0.20;;;;;;;;;;5127415;28;20199;-68
2023/01/25 08:16:24;;;;;;;0.30;0.30;;;;;;;;;;5116659;28;20262;-68
2023/01/25 08:18:51;;;;;;;0.60;0.60;;;;;;;;;;5127301;28;20272;-68
2023/01/25 08:21:18;;;;;;;0.20;0.20;;;;;;;;;;5116272;28;20309;-68
2023/01/25 08:23:44;;;;;;;0.23;0.23;;;;;;;;;;5127302;28;20477;-68
2023/01/25 08:26:12;;;;;;;0.30;0.30;;;;;;;;;;5116505;28;20307;-68
2023/01/25 08:28:39;;;;;;;0.20;0.20;;;;;;;;;;5126909;28;20276;-68
2023/01/25 08:31:06;;;;;;;0.30;0.30;;;;;;;;;;5116293;28;20239;-68
2023/01/25 08:33:33;;;;;;;0.30;0.30;;;;;;;;;;5127053;28;20522;-68
2023/01/25 08:35:59;;;;;;;0.30;0.30;;;;;;;;;;5116557;28;20262;-68
2023/01/25 08:38:25;;;;;;;0.30;0.30;;;;;;;;;;5126960;28;20292;-68
2023/01/25 08:40:52;;;;;;;0.30;0.30;;;;;;;;;;5116336;28;20258;-67
2023/01/25 08:43:19;;;;;;;0.27;0.27;;;;;;;;;;5126382;28;20276;-67
2023/01/25 08:45:46;;;;;;;0.23;0.23;;;;;;;;;;5116499;28;20550;-67
2023/01/25 08:48:14;;;;;;;0.20;0.20;;;;;;;;;;5126691;28;20235;-67
2023/01/25 08:50:45;;;;;;;0.30;0.30;;;;;;;;;;5116250;28;20314;-67
2023/01/25 08:53:11;;;;;;;0.20;0.20;;;;;;;;;;5126110;28;20280;-68
2023/01/25 08:55:39;;;;;;;0.30;0.30;;;;;;;;;;5116232;28;20260;-68
2023/01/25 08:58:09;;;;;;;0.27;0.27;;;;;;;;;;5126472;28;20209;-68
2023/01/25 09:00:37;;;;;;;0.30;0.30;;;;;;;;;;5116117;28;20239;-68
2023/01/25 09:03:04;;;;;;;0.20;0.20;;;;;;;;;;5126162;28;20221;-71
2023/01/25 09:05:30;;;;;;;0.20;0.20;;;;;;;;;;5116098;28;20438;-69
2023/01/25 09:07:58;;;;;;;0.20;0.20;;;;;;;;;;5125025;28;20231;-77
2023/01/25 09:10:24;;;;;;;0.70;0.70;;;;;;;;;;5115966;28;20267;-68
2023/01/25 09:12:51;;;;;;;0.20;0.20;;;;;;;;;;5125988;28;20271;-68
2023/01/25 09:15:17;;;;;;;0.63;0.63;;;;;;;;;;5115928;28;20230;-68
2023/01/25 09:17:45;;;;;;;0.20;0.20;;;;;;;;;;5125879;28;20203;-68
2023/01/25 09:20:11;;;;;;;0.83;0.83;;;;;;;;;;5115967;28;20341;-68
2023/01/25 09:22:39;;;;;;;0.20;0.20;;;;;;;;;;5125311;28;20247;-68
2023/01/25 09:25:06;;;;;;;0.23;0.23;;;;;;;;;;5126709;28;20580;-68
2023/01/25 09:27:32;;;;;;;0.20;0.20;;;;;;;;;;5098084;28;20207;-68
2023/01/25 09:29:58;;;;;;;0.20;0.20;;;;;;;;;;5126354;28;20240;-69
2023/01/25 09:32:25;;;;;;;0.20;0.20;;;;;;;;;;5114880;28;20255;-68
2023/01/25 09:34:52;;;;;;;1.60;1.60;;;;;;;;;;5126317;28;20231;-67
2023/01/25 09:37:19;;;;;;;0.23;0.23;;;;;;;;;;5114840;28;20306;-69
2023/01/25 09:39:45;;;;;;;0.20;0.20;;;;;;;;;;5126445;28;20230;-68
2023/01/25 09:42:21;;;;;;;0.20;0.20;;;;;;;;;;5114782;28;20263;-68
2023/01/25 09:44:57;;;;;;;0.20;0.20;;;;;;;;;;5126395;28;20221;-67
2023/01/25 09:47:27;;;;;;;0.20;0.20;;;;;;;;;;5114771;28;20281;-68
2023/01/25 09:50:08;;;;;;;0.20;0.20;;;;;;;;;;5126048;28;20525;-66
2023/01/25 09:52:53;;;;;;;0.20;0.20;;;;;;;;;;5080843;28;20219;-67
2023/01/25 09:55:22;;;;;;;0.20;0.20;;;;;;;;;;5114816;28;20202;-67
2023/01/25 09:57:52;;;;;;;0.20;0.20;;;;;;;;;;5125138;28;20247;-67
2023/01/25 10:00:23;;;;;;;0.20;0.20;;;;;;;;;;5115475;28;20199;-70
2023/01/25 10:02:52;;;;;;;0.20;0.20;;;;;;;;;;5125051;28;20222;-70
2023/01/25 10:05:21;;;;;;;0.20;0.20;;;;;;;;;;5115151;28;20453;-65
2023/01/25 10:07:53;;;;;;;0.20;0.20;;;;;;;;;;5125064;28;20204;-70
2023/01/25 10:10:23;;;;;;;0.20;0.20;;;;;;;;;;5115217;28;20193;-73
2023/01/25 10:12:49;;;;;;;0.20;0.20;;;;;;;;;;5124807;28;20263;-70
2023/01/25 10:15:19;;;;;;;0.20;0.20;;;;;;;;;;5115201;28;20370;-70
2023/01/25 10:17:49;;;;;;;0.20;0.20;;;;;;;;;;5124797;28;20204;-70
2023/01/25 10:20:20;;;;;;;0.20;0.20;;;;;;;;;;5115071;28;20291;-66
2023/01/25 10:22:48;;;;;;;0.20;0.20;;;;;;;;;;5124349;28;20282;-67
2023/01/25 10:25:19;;;;;;;0.20;0.20;;;;;;;;;;5114903;28;20472;-67
2023/01/25 10:27:53;;;;;;;0.20;0.20;;;;;;;;;;5124536;28;20233;-67
2023/01/25 10:30:23;;;;;;;0.20;0.20;;;;;;;;;;5114574;28;20389;-67
2023/01/25 10:32:51;;;;;;;0.20;0.20;;;;;;;;;;5124515;28;20209;-67
2023/01/25 10:35:19;;;;;;;0.20;0.20;;;;;;;;;;5114430;28;20208;-67
2023/01/25 10:37:45;;;;;;;0.20;0.20;;;;;;;;;;5124468;28;20272;-67
2023/01/25 10:40:15;;;;;;;0.20;0.20;;;;;;;;;;5114457;28;20279;-67
2023/01/25 10:42:44;;;;;;;0.30;0.30;;;;;;;;;;5124131;28;20219;-68
2023/01/25 10:45:13;;;;;;;0.20;0.20;;;;;;;;;;5114630;28;20296;-67
2023/01/25 10:47:41;;;;;;;0.20;0.20;;;;;;;;;;5124106;28;20209;-67
2023/01/25 10:50:08;;;;;;;0.20;0.20;;;;;;;;;;5118016;28;20218;-67
2023/01/25 10:52:36;;;;;;;0.20;0.20;;;;;;;;;;5123939;28;20283;-67
2023/01/25 10:55:07;;;;;;;0.20;0.20;;;;;;;;;;5124758;28;20204;-67
2023/01/25 10:57:37;;;;;;;0.20;0.20;;;;;;;;;;5096333;28;20235;-67
2023/01/25 11:00:09;;;;;;;0.20;0.20;;;;;;;;;;5124998;28;20227;-67
2023/01/25 11:02:45;;;;;;;0.20;0.20;;;;;;;;;;5096282;28;20203;-67
2023/01/25 11:05:32;;;;;;;0.20;0.20;;;;;;;;;;5113937;28;20580;-67
2023/01/25 11:07:59;;;;;;;0.20;0.20;;;;;;;;;;5124019;28;20193;-67
2023/01/25 11:10:29;;;;;;;0.20;0.20;;;;;;;;;;5113710;28;20231;-67
2023/01/25 11:13:20;;;;;;;0.20;0.20;;;;;;;;;;5123704;28;20212;-67
2023/01/25 11:15:47;;;;;;;0.20;0.20;;;;;;;;;;5093105;28;20267;-67
2023/01/25 11:18:16;;;;;;;0.20;0.20;;;;;;;;;;5123570;28;20203;-67
2023/01/25 11:20:42;;;;;;;0.20;0.20;;;;;;;;;;5113377;28;20260;-67
2023/01/25 11:23:21;;;;;;;0.20;0.20;;;;;;;;;;5123465;28;20255;-67
2023/01/25 11:25:47;;;;;;;0.20;0.20;;;;;;;;;;5113180;28;20302;-66
2023/01/25 11:28:18;;;;;;;0.20;0.20;;;;;;;;;;5123731;28;20369;-72
2023/01/25 11:30:44;;;;;;;0.20;0.20;;;;;;;;;;5112897;28;20484;-69
2023/01/25 11:33:11;;;;;;;0.20;0.20;;;;;;;;;;5123332;28;20236;-67
2023/01/25 11:35:43;;;;;;;0.20;0.20;;;;;;;;;;5113110;28;20290;-67
2023/01/25 11:38:12;;;;;;;0.27;0.27;;;;;;;;;;5123249;28;20269;-68
2023/01/25 11:40:41;;;;;;;0.27;0.27;;;;;;;;;;5113066;28;20243;-69
2023/01/25 11:43:15;;;;;;;0.30;0.30;;;;;;;;;;5123580;28;20193;-66
2023/01/25 11:45:49;;;;;;;0.20;0.20;;;;;;;;;;5113001;28;20620;-61
2023/01/25 11:48:24;;;;;;;0.20;0.20;;;;;;;;;;5123282;28;20274;-61
2023/01/25 11:50:56;;;;;;;2.97;2.87;;;;;;;;;;5113293;28;20262;-61
2023/01/25 11:53:41;;;;;;;0.30;0.30;;;;;;;;;;5123256;28;20243;-61
2023/01/25 11:56:11;;;;;;;0.20;0.20;;;;;;;;;;5112828;28;20244;-61
2023/01/25 11:58:52;;;;;;;0.23;0.23;;;;;;;;;;5123602;28;20192;-61
2023/01/25 12:01:21;;;;;;;44.33;4.53;;;;;;;;;;5112746;28;20244;-61
2023/01/25 12:03:56;;;;;;;0.20;0.20;;;;;;;;;;5123334;28;20330;-61
2023/01/25 12:06:28;;;;;;;1.13;1.13;;;;;;;;;;5112552;28;20435;-61
2023/01/25 12:09:03;;;;;;;0.20;0.20;;;;;;;;;;5123473;28;20198;-61
2023/01/25 12:11:39;;;;;;;0.20;0.20;;;;;;;;;;5112522;28;20568;-61
2023/01/25 12:14:07;;;;;;;0.20;0.20;;;;;;;;;;5123484;28;20220;-61
2023/01/25 12:16:42;;;;;;;0.20;0.20;;;;;;;;;;5112531;28;20450;-61
2023/01/25 12:19:25;;;;;;;0.20;0.20;;;;;;;;;;5123557;28;20199;-62
2023/01/25 12:22:00;;;;;;;0.20;0.20;;;;;;;;;;5112112;28;20310;-61
2023/01/25 12:24:36;;;;;;;0.57;0.57;;;;;;;;;;5123793;28;20240;-67
2023/01/25 12:27:07;;;;;;;0.20;0.20;;;;;;;;;;5112189;28;20243;-67
2023/01/25 12:29:36;;;;;;;0.20;0.20;;;;;;;;;;5123884;28;20192;-68
2023/01/25 12:32:05;;;;;;;0.20;0.20;;;;;;;;;;5112079;28;20349;-66
2023/01/25 12:34:34;;;;;;;0.20;0.20;;;;;;;;;;5123786;28;20273;-67
2023/01/25 12:37:05;;;;;;;0.20;0.20;;;;;;;;;;5112127;28;20309;-67
2023/01/25 12:39:41;;;;;;;0.20;0.20;;;;;;;;;;5123458;28;20203;-67
2023/01/25 12:42:12;;;;;;;0.20;0.20;;;;;;;;;;5113099;28;20278;-67
2023/01/25 12:44:41;;;;;;;0.20;0.20;;;;;;;;;;5127149;28;20193;-68
2023/01/25 12:47:11;;;;;;;0.20;0.20;;;;;;;;;;5115615;28;20299;-67
2023/01/25 12:49:41;;;;;;;0.20;0.20;;;;;;;;;;5127344;28;20225;-67
2023/01/25 12:52:17;;;;;;;0.20;0.20;;;;;;;;;;5115665;28;20277;-68
2023/01/25 12:54:44;;;;;;;0.20;0.20;;;;;;;;;;5127320;28;20429;-67
2023/01/25 12:57:15;;;;;;;0.20;0.20;;;;;;;;;;5115555;28;20586;-67
2023/01/25 12:59:45;;;;;;;8.70;8.13;;;;;;;;;;5127163;28;20193;-67
2023/01/25 13:02:21;;;;;;;0.20;0.20;;;;;;;;;;5115318;28;20256;-68
2023/01/25 13:04:54;;;;;;;4.87;4.53;;;;;;;;;;5127051;28;20505;-68
2023/01/25 13:07:24;;;;;;;0.30;0.30;;;;;;;;;;5115311;28;20252;-70
2023/01/25 13:09:55;;;;;;;0.23;0.23;;;;;;;;;;5126637;28;20205;-67
2023/01/25 13:12:23;;;;;;;0.20;0.20;;;;;;;;;;5115130;28;20312;-67
2023/01/25 13:14:50;;;;;;;0.20;0.20;;;;;;;;;;5126534;28;20238;-68
2023/01/25 13:17:24;;;;;;;0.20;0.20;;;;;;;;;;5115140;28;20288;-67
2023/01/25 13:19:52;;;;;;;0.20;0.20;;;;;;;;;;5126758;28;20227;-67
2023/01/25 13:22:37;;;;;;;0.20;0.20;;;;;;;;;;5114694;28;20286;-68
2023/01/25 13:25:18;;;;;;;0.20;0.20;;;;;;;;;;5126581;28;20251;-67
2023/01/25 13:27:44;;;;;;;0.20;0.20;;;;;;;;;;5126462;28;20271;-67
2023/01/25 13:30:25;;;;;;;0.20;0.20;;;;;;;;;;5115958;28;20445;-68
2023/01/25 13:32:54;;;;;;;0.30;0.30;;;;;;;;;;5125551;28;20459;-67
2023/01/25 13:35:33;;;;;;;0.20;0.20;;;;;;;;;;5115714;28;20389;-67
2023/01/25 13:38:05;;;;;;;0.30;0.30;;;;;;;;;;5125321;28;20226;-68
2023/01/25 13:40:34;;;;;;;0.20;0.20;;;;;;;;;;5115481;28;20336;-67
2023/01/25 13:43:02;;;;;;;0.20;0.20;;;;;;;;;;5125319;28;20223;-67
2023/01/25 13:45:29;;;;;;;0.20;0.20;;;;;;;;;;5115248;28;20262;-67
2023/01/25 13:48:01;;;;;;;0.20;0.20;;;;;;;;;;5125378;28;20507;-67
2023/01/25 13:50:29;;;;;;;0.40;0.40;;;;;;;;;;5115340;28;20249;-68
2023/01/25 13:52:56;;;;;;;0.20;0.20;;;;;;;;;;5124581;28;20472;-67
2023/01/25 13:55:23;;;;;;;0.20;0.20;;;;;;;;;;5115142;28;20266;-67
2023/01/25 13:57:51;;;;;;;0.20;0.20;;;;;;;;;;5125056;28;20243;-67
2023/01/25 14:00:18;;;;;;;0.20;0.20;;;;;;;;;;5115060;28;20204;-67
2023/01/25 14:02:46;;;;;;;0.20;0.20;;;;;;;;;;5124940;28;20220;-67
2023/01/25 14:05:19;;;;;;;0.20;0.20;;;;;;;;;;5115291;28;20469;-67
2023/01/25 14:07:46;;;;;;;0.20;0.20;;;;;;;;;;5124577;28;20226;-67
2023/01/25 14:10:30;;;;;;;0.30;0.30;;;;;;;;;;5115303;28;20243;-68
2023/01/25 14:13:00;;;;;;;0.20;0.20;;;;;;;;;;5124674;28;20306;-67
2023/01/25 14:15:27;;;;;;;0.30;0.30;;;;;;;;;;5114969;28;20224;-66
2023/01/25 14:18:21;;;;;;;0.67;0.67;;;;;;;;;;5124412;28;20465;-67
2023/01/25 14:20:48;;;;;;;0.20;0.20;;;;;;;;;;5066388;28;20592;-67
2023/01/25 14:23:21;;;;;;;0.20;0.20;;;;;;;;;;5124623;28;20259;-67
2023/01/25 14:25:48;;;;;;;0.20;0.20;;;;;;;;;;5114227;28;20251;-67
2023/01/25 14:28:17;;;;;;;0.20;0.20;;;;;;;;;;5124493;28;20232;-68
2023/01/25 14:30:44;;;;;;;0.20;0.20;;;;;;;;;;5114382;28;20487;-67
2023/01/25 14:33:17;;;;;;;0.20;0.20;;;;;;;;;;5124686;28;20446;-68
2023/01/25 14:35:44;;;;;;;0.20;0.20;;;;;;;;;;5114304;28;20605;-66
2023/01/25 14:38:21;;;;;;;0.20;0.20;;;;;;;;;;5124195;28;20230;-67
2023/01/25 14:40:49;;;;;;;0.20;0.20;;;;;;;;;;5113866;28;20242;-67
2023/01/25 14:43:16;;;;;;;0.20;0.20;;;;;;;;;;5124159;28;20275;-66
2023/01/25 14:45:43;;;;;;;0.20;0.20;;;;;;;;;;5113816;28;20303;-67
2023/01/25 14:48:25;;;;;;;0.20;0.20;;;;;;;;;;5124284;28;20210;-67
2023/01/25 14:50:51;;;;;;;0.30;0.30;;;;;;;;;;5112928;28;20249;-67
2023/01/25 14:53:20;;;;;;;0.20;0.20;;;;;;;;;;5124354;28;20258;-67